Arnos Vale, Saint Vincent

11:25 AM AST on September 16, 2014 (GMT -0400)
E T Joshua | Change Station
CLOSE
Current Station
Airport
Location: Arnos Vale,
Elevation: 43 ft
Nearby Weather Stations

Elev 43 ft 13.14 °N, 61.21 °W | Updated 25 minutes ago

Scattered Clouds
Scattered Clouds
88 °F
Feels Like 98 °F
N
10
Wind Variable Wind from East

Today
High -- | Low -- °F
--% Chance of Precip.
Yesterday
High -- | Low -- °F
Precip. -- in
5:53 AM 6:05 PM
Last Quarter, 45% visible
Pressure 30.01 in
Visibility 6.2 miles
Clouds Scattered Clouds 2200 ft
Scattered Clouds 28000 ft
Heat Index 98 °F
Dew Point 75 °F
Humidity 66%
Rainfall 0.00 in
Snow Depth Not available.
UV 13 out of 12
Pollen Not available.
Air Quality Not available.
Flu Activity Not available.
METAR TVSV 161500Z 10009KT 9999 SCT022 SCT280 31/24 Q1016

More Conditions Fewer Conditions

Pressure 30.01 in
Visibility 6.2 miles
Clouds Scattered Clouds 2200 ft
Scattered Clouds 28000 ft
Heat Index 98 °F
Dew Point 75 °F
Humidity 66%
Rainfall 0.00 in
Snow Depth Not available.
UV 13 out of 12
Pollen Not available.
Air Quality Not available.
Flu Activity Not available.
METAR TVSV 161500Z 10009KT 9999 SCT022 SCT280 31/24 Q1016

More Conditions Fewer Conditions

10-Day Weather Forecast

Almanac

Astronomy

Sep. 16, 2014 Rise Set
Actual Time 5:53 AM AST 6:05 PM AST
Civil Twilight 5:32 AM AST 6:26 PM AST
Nautical Twilight 5:07 AM AST 6:51 PM AST
Astronomical Twilight 4:43 AM AST 7:15 PM AST
Moon No Moon Rise 12:42 PM AST
Length of Visible Light 12h 53m
Length of Day
12h 11m
Tomorrow will be 0m 44s shorter.
Last Quarter, 45% of the Moon is Illuminated
Today
Last Quarter
Sep 24
New
Oct 1
First Quarter
Oct 8
Full
Oct 15
Last Quarter

Today's Extremes

Country Highs Country Lows

Community

WunderPhotos

Upload Photos

1,753,807 photos uploaded!

Nearby

Snow Depth

Not available.

Earthquake Activity

City Distance Mag. Time & Date
No recent earthquake activity has been reported nearby.
Minimum magnitude displayed is 2.5.

Coastal Water Temperatures

Place Temperature
No Stations Reporting

Nearby Weather Stations